createdAt,value
2023-02-14T00:00:49.828Z,78.22
2023-02-14T00:01:52.079Z,80.80
2023-02-14T00:02:54.550Z,88.55
2023-02-14T00:04:00.892Z,82.32
2023-02-14T00:05:03.930Z,76.13
2023-02-14T00:06:10.973Z,88.07
2023-02-14T00:07:13.906Z,67.60
2023-02-14T00:08:16.513Z,62.70
2023-02-14T00:09:19.731Z,84.88
2023-02-14T00:10:21.483Z,78.05
2023-02-14T00:11:23.280Z,55.50
2023-02-14T00:12:25.148Z,85.07
2023-02-14T00:13:26.817Z,64.80
2023-02-14T00:14:47.738Z,52.47
2023-02-14T00:15:49.519Z,56.95
2023-02-14T00:16:51.747Z,78.10
2023-02-14T00:17:56.228Z,77.13
2023-02-14T00:19:04.536Z,64.55
2023-02-14T00:20:07.065Z,61.20
2023-02-14T00:21:09.014Z,69.03
2023-02-14T00:22:11.210Z,73.75
2023-02-14T00:23:13.092Z,66.45
2023-02-14T00:24:16.538Z,59.22
2023-02-14T00:25:18.889Z,67.43
2023-02-14T00:26:20.850Z,63.08
2023-02-14T00:27:22.534Z,65.82
2023-02-14T00:28:25.623Z,51.60
2023-02-14T00:29:32.810Z,68.18
2023-02-14T00:30:36.758Z,69.10
2023-02-14T00:31:39.385Z,71.72
2023-02-14T00:32:42.666Z,56.25
2023-02-14T00:33:44.288Z,57.65
2023-02-14T00:34:45.955Z,68.93
2023-02-14T00:35:47.670Z,59.05
2023-02-14T00:36:49.893Z,54.47
2023-02-14T00:37:51.962Z,60.92
2023-02-14T00:38:55.334Z,58.47
2023-02-14T00:39:57.273Z,60.20
2023-02-14T00:40:59.739Z,60.30
2023-02-14T00:42:01.661Z,64.97
2023-02-14T00:43:03.274Z,53.20
2023-02-14T00:44:06.302Z,72.93
2023-02-14T00:45:09.292Z,74.00
2023-02-14T00:46:11.377Z,47.88
2023-02-14T00:47:13.285Z,45.67
2023-02-14T00:48:16.244Z,47.13
2023-02-14T00:49:18.348Z,52.40
2023-02-14T00:50:20.132Z,64.18
2023-02-14T00:51:21.826Z,65.68
2023-02-14T00:52:23.913Z,57.42
2023-02-14T00:53:25.743Z,66.10
2023-02-14T00:54:27.880Z,52.50
2023-02-14T00:55:29.484Z,50.20
2023-02-14T00:56:32.151Z,53.20
2023-02-14T00:57:34.218Z,72.65
2023-02-14T00:58:36.211Z,53.00
2023-02-14T00:59:38.391Z,55.08
2023-02-14T01:00:40.219Z,74.28
2023-02-14T01:01:42.580Z,57.88
2023-02-14T01:02:44.266Z,61.83
2023-02-14T01:03:47.085Z,52.33
2023-02-14T01:04:48.934Z,43.70
2023-02-14T01:05:51.690Z,58.67
2023-02-14T01:06:53.345Z,59.03
2023-02-14T01:07:55.750Z,41.78
2023-02-14T01:08:58.235Z,47.03
2023-02-14T01:10:00.273Z,49.15
2023-02-14T01:11:09.144Z,49.05
2023-02-14T01:12:11.094Z,57.65
2023-02-14T01:13:14.530Z,44.53
2023-02-14T01:14:18.859Z,59.22
2023-02-14T01:15:20.584Z,50.25
2023-02-14T01:16:24.000Z,63.00
2023-02-14T01:17:25.860Z,44.72
2023-02-14T01:18:28.237Z,56.90
2023-02-14T01:19:31.216Z,76.57
2023-02-14T01:20:35.150Z,60.35
2023-02-14T01:21:36.976Z,49.22
2023-02-14T01:22:38.932Z,59.53
2023-02-14T01:23:41.598Z,54.20
2023-02-14T01:24:44.402Z,46.28
2023-02-14T01:25:46.079Z,44.88
2023-02-14T01:26:47.881Z,42.53
2023-02-14T01:27:49.608Z,47.63
2023-02-14T01:28:51.620Z,39.13
2023-02-14T01:29:53.603Z,35.45
2023-02-14T01:30:55.544Z,39.80
2023-02-14T01:31:57.483Z,45.50
2023-02-14T01:33:00.131Z,37.63
2023-02-14T01:34:02.995Z,46.55
2023-02-14T01:35:05.133Z,45.35
2023-02-14T01:36:07.465Z,40.42
2023-02-14T01:37:09.047Z,45.90
2023-02-14T01:38:11.487Z,41.30
2023-02-14T01:39:15.108Z,48.10
2023-02-14T01:40:17.632Z,44.05
2023-02-14T01:41:20.478Z,40.70
2023-02-14T01:42:22.888Z,48.15
2023-02-14T01:43:25.500Z,55.05
2023-02-14T01:44:33.945Z,52.47
2023-02-14T01:45:38.161Z,48.78
2023-02-14T01:46:41.573Z,53.50
2023-02-14T01:47:46.208Z,50.35
2023-02-14T01:48:50.331Z,50.90
2023-02-14T01:49:56.473Z,43.42
2023-02-14T01:50:59.033Z,50.92
2023-02-14T01:52:18.232Z,41.17
2023-02-14T01:53:30.207Z,43.33
2023-02-14T01:54:36.270Z,51.88
2023-02-14T01:55:42.564Z,45.60
2023-02-14T01:56:51.590Z,42.63
2023-02-14T01:58:09.508Z,41.80
2023-02-14T01:59:16.752Z,46.83
2023-02-14T02:00:37.549Z,61.00
2023-02-14T02:01:40.601Z,40.90
2023-02-14T02:02:43.864Z,53.05
2023-02-14T02:03:55.889Z,42.70
2023-02-14T02:04:57.957Z,41.75
2023-02-14T02:06:05.709Z,39.05
2023-02-14T02:07:12.723Z,40.00
2023-02-14T02:08:15.262Z,39.72
2023-02-14T02:09:17.258Z,42.92
2023-02-14T02:10:19.342Z,39.40
2023-02-14T02:11:21.216Z,39.15
2023-02-14T02:12:23.916Z,43.17
2023-02-14T02:13:25.642Z,41.53
2023-02-14T02:14:29.242Z,45.33
2023-02-14T02:15:37.858Z,41.90
2023-02-14T02:16:42.635Z,50.35
2023-02-14T02:18:02.832Z,53.28
2023-02-14T02:19:34.366Z,44.88
2023-02-14T02:21:02.407Z,41.85
2023-02-14T02:22:28.247Z,49.75
2023-02-14T02:23:42.300Z,42.88
2023-02-14T02:25:09.996Z,36.78
2023-02-14T02:26:17.795Z,34.35
2023-02-14T02:27:33.811Z,42.15
2023-02-14T02:28:44.895Z,51.38
2023-02-14T02:30:14.921Z,43.45
2023-02-14T02:31:37.766Z,50.58
2023-02-14T02:32:56.849Z,35.20
2023-02-14T02:34:01.798Z,36.42
2023-02-14T02:35:28.602Z,34.22
2023-02-14T02:36:55.204Z,40.22
2023-02-14T02:38:17.754Z,42.88
2023-02-14T02:39:50.385Z,35.38
2023-02-14T02:41:08.985Z,39.63
2023-02-14T02:42:50.208Z,40.05
2023-02-14T02:44:05.430Z,47.15
2023-02-14T02:45:19.328Z,43.15
2023-02-14T02:46:48.878Z,39.78
2023-02-14T02:48:20.402Z,45.50
2023-02-14T02:49:58.193Z,53.42
2023-02-14T02:51:24.170Z,39.55
2023-02-14T02:52:53.366Z,39.58
2023-02-14T02:54:04.960Z,42.75
2023-02-14T02:55:56.784Z,49.95
2023-02-14T02:57:02.172Z,51.17
2023-02-14T02:58:04.594Z,48.35
2023-02-14T02:59:18.579Z,45.67
2023-02-14T03:00:24.680Z,50.85
2023-02-14T03:01:31.098Z,55.53
2023-02-14T03:02:58.241Z,59.58
2023-02-14T03:04:27.622Z,33.20
2023-02-14T03:05:29.945Z,47.08
2023-02-14T03:06:33.673Z,46.90
2023-02-14T03:07:36.772Z,50.47
2023-02-14T03:08:38.619Z,51.60
2023-02-14T03:09:42.277Z,41.65
2023-02-14T03:10:45.060Z,41.47
2023-02-14T03:12:28.859Z,49.05
2023-02-14T03:13:58.410Z,48.30
2023-02-14T03:15:09.361Z,51.28
2023-02-14T03:16:26.317Z,47.33
2023-02-14T03:17:37.082Z,41.40
2023-02-14T03:19:00.705Z,44.97
2023-02-14T03:20:15.617Z,51.75
2023-02-14T03:21:26.254Z,55.03
2023-02-14T03:22:40.761Z,48.75
2023-02-14T03:24:04.286Z,49.28
2023-02-14T03:25:22.725Z,46.83
2023-02-14T03:26:48.046Z,38.13
2023-02-14T03:27:58.334Z,37.78
2023-02-14T03:29:12.105Z,32.58
2023-02-14T03:30:36.904Z,36.35
2023-02-14T03:31:47.885Z,46.75
2023-02-14T03:32:58.481Z,39.10
2023-02-14T03:34:07.355Z,46.50
2023-02-14T03:35:11.880Z,42.47
2023-02-14T03:36:17.537Z,42.05
2023-02-14T03:37:40.869Z,37.35
2023-02-14T03:38:53.539Z,38.95
2023-02-14T03:39:58.162Z,41.38
2023-02-14T03:41:08.434Z,37.60
2023-02-14T03:42:19.806Z,35.35
2023-02-14T03:43:30.646Z,36.50
2023-02-14T03:44:35.970Z,36.65
2023-02-14T03:45:47.754Z,40.22
2023-02-14T03:46:58.293Z,34.47
2023-02-14T03:48:06.205Z,34.60
2023-02-14T03:49:15.153Z,38.38
2023-02-14T03:50:20.788Z,49.28
2023-02-14T03:51:24.687Z,46.13
2023-02-14T03:52:29.674Z,42.53
2023-02-14T03:53:36.748Z,44.70
2023-02-14T03:54:39.010Z,39.28
2023-02-14T03:55:49.670Z,42.88
2023-02-14T03:57:21.191Z,49.28
2023-02-14T03:58:31.769Z,54.20
2023-02-14T03:59:34.588Z,42.28
2023-02-14T04:00:41.106Z,40.65
2023-02-14T04:02:15.731Z,36.75
2023-02-14T04:03:20.392Z,43.75
2023-02-14T04:04:28.202Z,43.60
2023-02-14T04:05:31.166Z,46.53
2023-02-14T04:06:33.807Z,40.45
2023-02-14T04:07:46.261Z,47.55
2023-02-14T04:08:48.514Z,42.00
2023-02-14T04:09:51.039Z,50.33
2023-02-14T04:10:59.626Z,46.53
2023-02-14T04:12:03.925Z,36.95
2023-02-14T04:13:05.952Z,46.53
2023-02-14T04:14:07.876Z,45.58
2023-02-14T04:15:10.412Z,42.30
2023-02-14T04:16:12.620Z,43.38
2023-02-14T04:17:32.975Z,38.25
2023-02-14T04:18:53.627Z,43.45
2023-02-14T04:19:55.609Z,36.58
2023-02-14T04:20:57.892Z,35.90
2023-02-14T04:22:00.029Z,36.97
2023-02-14T04:23:03.549Z,34.78
2023-02-14T04:24:06.116Z,38.88
2023-02-14T04:25:07.962Z,39.55
2023-02-14T04:26:10.382Z,37.15
2023-02-14T04:27:12.426Z,40.92
2023-02-14T04:28:14.310Z,38.10
2023-02-14T04:29:18.087Z,36.72
2023-02-14T04:30:22.293Z,36.95
2023-02-14T04:31:25.017Z,36.90
2023-02-14T04:32:27.529Z,34.50
2023-02-14T04:33:32.856Z,37.17
2023-02-14T04:34:35.341Z,37.03
2023-02-14T04:35:37.491Z,39.28
2023-02-14T04:36:39.200Z,30.20
2023-02-14T04:37:41.385Z,31.00
2023-02-14T04:38:43.055Z,34.55
2023-02-14T04:39:44.761Z,36.33
2023-02-14T04:40:49.688Z,28.98
2023-02-14T04:41:51.523Z,32.20
2023-02-14T04:42:53.765Z,30.08
2023-02-14T04:43:55.300Z,29.88
2023-02-14T04:44:57.400Z,30.02
2023-02-14T04:45:59.021Z,31.00
2023-02-14T04:47:01.740Z,39.97
2023-02-14T04:48:03.712Z,32.80
2023-02-14T04:49:07.150Z,37.45
2023-02-14T04:50:09.567Z,33.72
2023-02-14T04:51:11.616Z,41.88
2023-02-14T04:52:13.639Z,39.90
2023-02-14T04:53:19.389Z,37.10
2023-02-14T04:54:21.933Z,31.95
2023-02-14T04:55:23.797Z,48.35
2023-02-14T04:56:27.306Z,63.05
2023-02-14T04:57:29.110Z,48.63
2023-02-14T04:58:30.849Z,42.13
2023-02-14T04:59:32.855Z,38.35
2023-02-14T05:00:34.862Z,36.10
2023-02-14T05:01:39.491Z,38.45
2023-02-14T05:02:42.826Z,34.85
2023-02-14T05:03:44.991Z,33.90
2023-02-14T05:04:49.681Z,34.00
2023-02-14T05:05:51.631Z,33.83
2023-02-14T05:06:53.969Z,37.30
2023-02-14T05:07:55.755Z,36.58
2023-02-14T05:08:57.440Z,32.97
2023-02-14T05:09:59.768Z,33.97
2023-02-14T05:11:01.694Z,37.35
2023-02-14T05:12:03.985Z,38.92
2023-02-14T05:13:05.895Z,36.92
2023-02-14T05:14:08.229Z,30.45
2023-02-14T05:15:10.955Z,39.05
2023-02-14T05:16:12.729Z,35.67
2023-02-14T05:17:14.796Z,38.08
2023-02-14T05:18:16.498Z,39.10
2023-02-14T05:19:18.300Z,40.50
2023-02-14T05:20:20.604Z,35.20
2023-02-14T05:21:22.600Z,30.58
2023-02-14T05:22:24.567Z,32.13
2023-02-14T05:23:26.710Z,34.92
2023-02-14T05:24:29.461Z,29.02
2023-02-14T05:25:31.648Z,42.97
2023-02-14T05:26:33.575Z,33.78
2023-02-14T05:27:35.569Z,36.03
2023-02-14T05:28:41.547Z,38.30
2023-02-14T05:29:43.511Z,32.25
2023-02-14T05:30:46.477Z,34.75
2023-02-14T05:31:48.712Z,34.92
2023-02-14T05:32:50.827Z,30.13
2023-02-14T05:33:52.996Z,34.08
2023-02-14T05:34:54.817Z,31.00
2023-02-14T05:35:59.878Z,28.67
2023-02-14T05:37:03.244Z,30.67
2023-02-14T05:38:06.637Z,27.65
2023-02-14T05:39:08.564Z,31.02
2023-02-14T05:40:13.562Z,30.35
2023-02-14T05:41:17.650Z,31.67
2023-02-14T05:42:19.848Z,32.38
2023-02-14T05:43:22.134Z,35.25
2023-02-14T05:44:24.153Z,33.35
2023-02-14T05:45:26.814Z,37.22
2023-02-14T05:46:28.658Z,30.83
2023-02-14T05:47:30.866Z,33.13
2023-02-14T05:48:33.909Z,39.90
2023-02-14T05:49:36.524Z,32.22
2023-02-14T05:50:39.183Z,32.60
2023-02-14T05:51:41.009Z,30.63
2023-02-14T05:52:43.181Z,33.25
2023-02-14T05:53:46.046Z,28.80
2023-02-14T05:54:47.687Z,31.48
2023-02-14T05:55:50.654Z,30.95
2023-02-14T05:56:52.646Z,30.60
2023-02-14T05:57:54.613Z,31.10
2023-02-14T05:58:56.275Z,29.73
2023-02-14T05:59:58.265Z,30.42
2023-02-14T06:01:01.813Z,32.70
2023-02-14T06:02:04.331Z,30.33
2023-02-14T06:03:06.186Z,31.65
2023-02-14T06:04:08.214Z,31.13
2023-02-14T06:05:10.093Z,30.40
2023-02-14T06:06:12.101Z,32.80
2023-02-14T06:07:14.188Z,32.65
2023-02-14T06:08:15.937Z,32.30
2023-02-14T06:09:18.514Z,35.13
2023-02-14T06:10:23.376Z,36.63
2023-02-14T06:11:25.457Z,32.13
2023-02-14T06:12:27.201Z,36.78
2023-02-14T06:13:29.268Z,32.78
2023-02-14T06:14:31.549Z,31.88
2023-02-14T06:15:33.283Z,33.08
2023-02-14T06:16:35.046Z,34.58
2023-02-14T06:17:37.196Z,36.47
2023-02-14T06:18:39.077Z,33.45
2023-02-14T06:19:41.223Z,33.17
2023-02-14T06:20:43.273Z,35.50
2023-02-14T06:21:45.134Z,33.80
2023-02-14T06:22:46.989Z,38.53
2023-02-14T06:23:48.867Z,35.88
2023-02-14T06:24:51.385Z,34.20
2023-02-14T06:25:53.558Z,34.75
2023-02-14T06:26:55.461Z,36.70
2023-02-14T06:27:58.714Z,38.17
2023-02-14T06:29:00.430Z,32.33
2023-02-14T06:30:02.549Z,30.70
2023-02-14T06:31:04.961Z,33.75
2023-02-14T06:32:07.241Z,33.35
2023-02-14T06:33:09.088Z,31.15
2023-02-14T06:34:10.984Z,35.78
2023-02-14T06:35:13.735Z,34.38
2023-02-14T06:36:15.698Z,37.05
2023-02-14T06:37:17.542Z,37.08
2023-02-14T06:38:19.520Z,39.20
2023-02-14T06:39:22.425Z,44.35
2023-02-14T06:40:25.398Z,38.65
2023-02-14T06:41:27.242Z,37.53
2023-02-14T06:42:28.955Z,35.60
2023-02-14T06:43:31.150Z,34.85
2023-02-14T06:44:33.410Z,34.25
2023-02-14T06:45:35.208Z,36.30
2023-02-14T06:46:37.198Z,33.72
2023-02-14T06:47:39.747Z,42.17
2023-02-14T06:48:41.699Z,40.28
2023-02-14T06:49:43.516Z,37.42
2023-02-14T06:50:47.055Z,37.30
2023-02-14T06:51:51.227Z,42.17
2023-02-14T06:52:53.004Z,55.90
2023-02-14T06:53:54.738Z,50.83
2023-02-14T06:54:56.431Z,51.38
2023-02-14T06:55:58.076Z,38.22
2023-02-14T06:57:00.097Z,40.40
2023-02-14T06:58:01.900Z,35.42
2023-02-14T06:59:04.082Z,37.75
2023-02-14T07:00:06.852Z,35.85
2023-02-14T07:01:09.188Z,38.63
2023-02-14T07:02:11.942Z,39.75
2023-02-14T07:03:13.865Z,40.28
2023-02-14T07:04:16.301Z,36.97
2023-02-14T07:05:21.184Z,32.97
2023-02-14T07:06:24.239Z,36.40
2023-02-14T07:07:25.990Z,37.83
2023-02-14T07:08:31.509Z,35.97
2023-02-14T07:09:33.134Z,33.28
2023-02-14T07:10:35.136Z,40.72
2023-02-14T07:11:38.171Z,44.38
2023-02-14T07:12:39.948Z,37.90
2023-02-14T07:13:42.043Z,36.45
2023-02-14T07:14:43.577Z,39.05
2023-02-14T07:15:45.481Z,33.65
2023-02-14T07:16:47.440Z,37.33
2023-02-14T07:17:50.807Z,34.72
2023-02-14T07:18:52.725Z,35.63
2023-02-14T07:19:54.372Z,37.75
2023-02-14T07:20:56.896Z,35.25
2023-02-14T07:21:58.707Z,36.58
2023-02-14T07:23:00.638Z,29.73
2023-02-14T07:24:02.500Z,38.22
2023-02-14T07:25:06.306Z,32.67
2023-02-14T07:26:08.202Z,31.73
2023-02-14T07:27:10.433Z,40.90
2023-02-14T07:28:13.233Z,38.00
2023-02-14T07:29:17.055Z,33.05
2023-02-14T07:30:19.078Z,37.97
2023-02-14T07:31:23.861Z,33.05
2023-02-14T07:32:26.108Z,35.38
2023-02-14T07:33:28.155Z,44.15
2023-02-14T07:34:30.098Z,51.00
2023-02-14T07:35:32.189Z,41.17
2023-02-14T07:36:34.850Z,32.28
2023-02-14T07:37:36.657Z,116.82
2023-02-14T07:38:38.830Z,63.33
2023-02-14T07:39:40.714Z,56.05
2023-02-14T07:40:42.487Z,78.65
2023-02-14T07:41:44.284Z,63.78
2023-02-14T07:42:56.193Z,38.78
2023-02-14T07:43:58.036Z,45.83
2023-02-14T07:45:04.774Z,65.60
2023-02-14T07:46:08.966Z,76.70
2023-02-14T07:47:10.868Z,51.58
2023-02-14T07:48:12.975Z,61.03
2023-02-14T07:49:16.005Z,44.50
2023-02-14T07:50:18.568Z,35.40
2023-02-14T07:51:20.180Z,30.48
2023-02-14T07:52:21.817Z,34.72
2023-02-14T07:53:26.158Z,35.25
2023-02-14T07:54:29.431Z,31.90
2023-02-14T07:55:31.002Z,39.10
2023-02-14T07:56:32.869Z,35.50
2023-02-14T07:57:36.037Z,36.20
2023-02-14T07:58:38.607Z,38.00
2023-02-14T07:59:40.344Z,40.63
2023-02-14T08:00:42.750Z,33.78
2023-02-14T08:01:45.116Z,40.42
2023-02-14T08:02:49.528Z,33.65
2023-02-14T08:03:52.691Z,34.88
2023-02-14T08:04:54.502Z,34.38
2023-02-14T08:05:59.277Z,34.38
2023-02-14T08:07:01.409Z,29.60
2023-02-14T08:08:03.344Z,28.38
2023-02-14T08:09:05.330Z,29.63
2023-02-14T08:10:08.092Z,28.42
2023-02-14T08:11:10.147Z,25.85
2023-02-14T08:12:30.640Z,28.27
2023-02-14T08:13:32.772Z,25.80
2023-02-14T08:14:34.649Z,25.17
2023-02-14T08:15:55.450Z,26.40
2023-02-14T08:16:57.327Z,26.13
2023-02-14T08:17:59.344Z,25.88
2023-02-14T08:19:02.314Z,24.35
2023-02-14T08:20:04.507Z,25.60
2023-02-14T08:21:08.943Z,24.65
2023-02-14T08:22:10.704Z,23.30
2023-02-14T08:23:12.683Z,24.75
2023-02-14T08:24:16.274Z,24.30
2023-02-14T08:25:18.137Z,23.65
2023-02-14T08:26:19.985Z,23.92
2023-02-14T08:27:22.037Z,23.67
2023-02-14T08:28:24.675Z,23.30
2023-02-14T08:29:26.469Z,24.23
2023-02-14T08:30:29.705Z,26.45
2023-02-14T08:31:36.010Z,25.65
2023-02-14T08:32:38.365Z,23.75
2023-02-14T08:33:40.162Z,23.90
2023-02-14T08:34:46.042Z,25.40
2023-02-14T08:35:49.468Z,27.30
2023-02-14T08:36:52.712Z,28.38
2023-02-14T08:37:54.672Z,27.42
2023-02-14T08:38:57.768Z,25.02
2023-02-14T08:39:59.755Z,26.33
2023-02-14T08:41:04.412Z,26.30
2023-02-14T08:42:07.782Z,25.58
2023-02-14T08:43:10.295Z,27.95
2023-02-14T08:44:11.953Z,26.17
2023-02-14T08:45:13.734Z,26.98
2023-02-14T08:46:16.896Z,27.58
2023-02-14T08:47:18.943Z,26.20
2023-02-14T08:48:23.502Z,28.80
2023-02-14T08:49:26.004Z,27.45
2023-02-14T08:50:27.790Z,26.55
2023-02-14T08:51:29.850Z,25.65
2023-02-14T08:52:31.895Z,27.65
2023-02-14T08:53:33.887Z,26.75
2023-02-14T08:54:35.742Z,27.20
2023-02-14T08:55:40.360Z,28.58
2023-02-14T08:56:42.870Z,24.98
2023-02-14T08:57:44.477Z,24.92
2023-02-14T08:58:46.997Z,25.90
2023-02-14T08:59:49.181Z,25.63
2023-02-14T09:00:50.828Z,25.00
2023-02-14T09:01:52.876Z,24.45
2023-02-14T09:02:54.934Z,24.83
2023-02-14T09:03:58.086Z,23.73
2023-02-14T09:05:00.052Z,24.40
2023-02-14T09:06:10.274Z,22.35
2023-02-14T09:07:13.243Z,24.25
2023-02-14T09:08:15.091Z,25.42
2023-02-14T09:09:18.013Z,25.20
2023-02-14T09:10:20.505Z,24.45
2023-02-14T09:11:24.771Z,23.52
2023-02-14T09:12:26.839Z,23.85
2023-02-14T09:13:28.836Z,24.00
2023-02-14T09:14:32.099Z,23.85
2023-02-14T09:15:34.502Z,22.65
2023-02-14T09:16:36.549Z,21.50
2023-02-14T09:17:39.440Z,23.23
2023-02-14T09:18:41.243Z,21.15
2023-02-14T09:19:43.439Z,24.83
2023-02-14T09:20:45.521Z,24.58
2023-02-14T09:21:47.384Z,23.52
2023-02-14T09:22:49.480Z,24.38
2023-02-14T09:23:52.099Z,22.75
2023-02-14T09:24:55.586Z,24.63
2023-02-14T09:26:05.783Z,26.42
2023-02-14T09:27:07.865Z,26.90
2023-02-14T09:28:09.972Z,26.60
2023-02-14T09:29:13.566Z,29.15
2023-02-14T09:30:16.475Z,27.15
2023-02-14T09:31:21.849Z,27.85
2023-02-14T09:32:23.649Z,28.38
2023-02-14T09:33:48.007Z,27.50
2023-02-14T09:34:49.909Z,25.70
2023-02-14T09:36:11.090Z,27.63
2023-02-14T09:37:33.377Z,27.30
2023-02-14T09:38:35.279Z,25.50
2023-02-14T09:39:38.517Z,27.75
2023-02-14T09:40:41.837Z,27.40
2023-02-14T09:42:01.624Z,29.15
2023-02-14T09:43:07.467Z,26.35
2023-02-14T09:44:21.677Z,26.83
2023-02-14T09:45:29.209Z,27.88
2023-02-14T09:46:37.622Z,25.45
2023-02-14T09:47:56.419Z,25.17
2023-02-14T09:49:01.584Z,23.67
2023-02-14T09:50:06.325Z,23.38
2023-02-14T09:51:20.611Z,26.50
2023-02-14T09:52:27.682Z,23.70
2023-02-14T09:53:45.526Z,25.70
2023-02-14T09:54:53.282Z,23.50
2023-02-14T09:56:22.750Z,23.83
2023-02-14T09:57:46.070Z,22.75
2023-02-14T09:59:16.201Z,23.02
2023-02-14T10:00:32.479Z,21.42
2023-02-14T10:01:43.466Z,22.40
2023-02-14T10:03:10.773Z,22.95
2023-02-14T10:04:26.796Z,20.80
2023-02-14T10:05:57.499Z,23.35
2023-02-14T10:07:19.962Z,24.70
2023-02-14T10:09:03.934Z,24.40
2023-02-14T10:10:17.199Z,22.55
2023-02-14T10:11:22.737Z,21.50
2023-02-14T10:12:31.983Z,21.65
2023-02-14T10:13:49.068Z,22.30
2023-02-14T10:14:56.068Z,20.33
2023-02-14T10:16:11.997Z,20.70
2023-02-14T10:17:42.765Z,21.85
2023-02-14T10:18:57.596Z,21.00
2023-02-14T10:20:07.521Z,20.23
2023-02-14T10:21:19.412Z,20.52
2023-02-14T10:22:27.519Z,20.55
2023-02-14T10:23:34.576Z,20.17
2023-02-14T10:24:43.312Z,19.80
2023-02-14T10:25:53.651Z,19.15
2023-02-14T10:28:30.149Z,21.90
2023-02-14T10:29:31.898Z,20.05
2023-02-14T10:30:39.719Z,20.73
2023-02-14T10:31:51.694Z,20.42
2023-02-14T10:32:57.487Z,21.02
2023-02-14T10:34:22.759Z,19.98
2023-02-14T10:35:59.149Z,21.58
2023-02-14T10:37:06.556Z,20.40
2023-02-14T10:38:17.877Z,19.77
2023-02-14T10:39:22.660Z,20.95
2023-02-14T10:41:00.166Z,22.27
2023-02-14T10:42:29.995Z,22.08
2023-02-14T10:43:56.700Z,23.35
2023-02-14T10:45:18.269Z,19.65
2023-02-14T10:46:38.169Z,20.58
2023-02-14T10:47:53.805Z,20.02
2023-02-14T10:49:14.633Z,21.50
2023-02-14T10:50:25.636Z,20.30
2023-02-14T10:52:04.753Z,22.48
2023-02-14T10:53:18.998Z,22.02
2023-02-14T10:54:21.666Z,21.50
2023-02-14T10:55:33.037Z,20.58
2023-02-14T10:56:40.691Z,21.73
2023-02-14T10:57:46.624Z,22.65
2023-02-14T10:58:52.001Z,21.83
2023-02-14T10:59:53.922Z,23.73
2023-02-14T11:01:10.527Z,23.15
2023-02-14T11:02:16.206Z,23.98
2023-02-14T11:03:19.289Z,22.95
2023-02-14T11:04:24.293Z,23.77
2023-02-14T11:05:32.839Z,24.35
2023-02-14T11:06:37.471Z,25.80
2023-02-14T11:07:39.605Z,22.92
2023-02-14T11:08:42.034Z,24.23
2023-02-14T11:09:45.880Z,24.23
2023-02-14T11:10:48.043Z,22.85
2023-02-14T11:11:58.959Z,23.48
2023-02-14T11:13:01.872Z,23.50
2023-02-14T11:15:39.613Z,23.20
2023-02-14T11:16:42.597Z,24.40
2023-02-14T11:17:44.503Z,21.63
2023-02-14T11:18:46.338Z,23.88
2023-02-14T11:20:09.829Z,22.20
2023-02-14T11:21:14.876Z,22.80
2023-02-14T11:22:29.876Z,21.95
2023-02-14T11:23:46.873Z,23.85
2023-02-14T11:24:49.576Z,26.48
2023-02-14T11:25:55.622Z,27.20
2023-02-14T11:27:02.677Z,27.20
2023-02-14T11:28:10.109Z,25.58
2023-02-14T11:29:15.282Z,24.48
2023-02-14T11:30:26.228Z,23.58
2023-02-14T11:31:36.322Z,22.20
2023-02-14T11:32:40.358Z,27.63
2023-02-14T11:33:44.261Z,28.63
2023-02-14T11:34:58.324Z,40.20
2023-02-14T11:36:03.410Z,23.85
2023-02-14T11:37:26.078Z,24.02
2023-02-14T11:38:31.585Z,26.52
2023-02-14T11:39:35.402Z,23.85
2023-02-14T11:40:39.908Z,28.75
2023-02-14T11:41:53.717Z,23.23
2023-02-14T11:43:13.466Z,24.45
2023-02-14T11:44:22.870Z,22.65
2023-02-14T11:45:35.397Z,23.25
2023-02-14T11:46:52.214Z,24.38
2023-02-14T11:48:22.373Z,26.15
2023-02-14T11:49:36.380Z,24.48
2023-02-14T11:50:39.828Z,31.63
2023-02-14T11:51:45.812Z,43.90
2023-02-14T11:52:56.773Z,42.08
2023-02-14T11:54:03.494Z,27.67
2023-02-14T11:55:05.989Z,27.75
2023-02-14T11:56:09.449Z,28.13
2023-02-14T11:57:23.996Z,22.67
2023-02-14T11:58:39.143Z,23.25
2023-02-14T11:59:45.654Z,23.65
2023-02-14T12:00:54.382Z,24.50
2023-02-14T12:02:00.506Z,24.60
2023-02-14T12:03:06.485Z,28.50
2023-02-14T12:04:22.163Z,25.48
2023-02-14T12:05:29.148Z,25.40
2023-02-14T12:06:36.292Z,27.67
2023-02-14T12:07:39.181Z,26.35
2023-02-14T12:08:42.237Z,34.35
2023-02-14T12:09:44.637Z,30.75
2023-02-14T12:11:21.785Z,26.85
2023-02-14T12:12:27.091Z,26.73
2023-02-14T12:13:29.121Z,26.58
2023-02-14T12:14:35.888Z,27.08
2023-02-14T12:15:44.494Z,25.95
2023-02-14T12:16:58.226Z,24.95
2023-02-14T12:18:21.268Z,25.77
2023-02-14T12:19:52.507Z,29.30
2023-02-14T12:21:00.401Z,25.75
2023-02-14T12:22:06.715Z,27.00
2023-02-14T12:23:39.363Z,26.48
2023-02-14T12:25:18.839Z,24.67
2023-02-14T12:26:20.997Z,25.75
2023-02-14T12:27:43.549Z,23.92
2023-02-14T12:28:56.250Z,26.27
2023-02-14T12:30:07.815Z,28.27
2023-02-14T12:31:12.324Z,22.50
2023-02-14T12:32:19.900Z,21.50
2023-02-14T12:33:25.318Z,23.90
2023-02-14T12:34:27.529Z,23.05
2023-02-14T12:35:35.352Z,23.83
2023-02-14T12:36:58.826Z,23.50
2023-02-14T12:38:19.198Z,23.88
2023-02-14T12:40:07.313Z,24.85
2023-02-14T12:41:31.260Z,23.58
2023-02-14T12:42:51.409Z,23.33
2023-02-14T12:43:59.223Z,25.15
2023-02-14T12:45:20.807Z,26.02
2023-02-14T12:46:49.700Z,26.17
2023-02-14T12:48:00.105Z,27.23
2023-02-14T12:49:23.579Z,27.13
2023-02-14T12:50:35.970Z,27.27
2023-02-14T12:51:56.577Z,25.63
2023-02-14T12:53:16.154Z,26.88
2023-02-14T12:54:37.086Z,25.92
2023-02-14T12:56:12.357Z,26.00
2023-02-14T12:57:52.615Z,25.90
2023-02-14T12:59:23.448Z,26.40
2023-02-14T13:01:04.043Z,26.92
2023-02-14T13:02:24.939Z,27.55
2023-02-14T13:03:38.979Z,25.92
2023-02-14T13:05:02.267Z,27.20
2023-02-14T13:07:02.689Z,28.83
2023-02-14T13:08:35.188Z,30.77
2023-02-14T13:09:53.200Z,27.35
2023-02-14T13:10:58.867Z,29.17
2023-02-14T13:12:09.610Z,28.50
2023-02-14T13:13:45.841Z,29.60
2023-02-14T13:15:00.548Z,28.85
2023-02-14T13:16:35.385Z,27.90
2023-02-14T13:17:50.255Z,29.80
2023-02-14T13:18:56.168Z,28.13
2023-02-14T13:20:40.014Z,28.00
2023-02-14T13:21:44.450Z,27.42
2023-02-14T13:22:48.626Z,29.33
2023-02-14T13:23:56.083Z,30.17
2023-02-14T13:25:04.162Z,26.95
2023-02-14T13:26:10.434Z,27.83
2023-02-14T13:27:34.462Z,30.25
2023-02-14T13:28:38.665Z,28.83
2023-02-14T13:29:48.387Z,27.50
2023-02-14T13:30:52.488Z,29.80
2023-02-14T13:32:01.336Z,28.50
2023-02-14T13:33:15.657Z,29.05
2023-02-14T13:34:37.386Z,28.10
2023-02-14T13:35:40.693Z,27.75
2023-02-14T13:36:44.631Z,28.92
2023-02-14T13:37:52.654Z,28.70
2023-02-14T13:38:57.657Z,26.67
2023-02-14T13:40:06.364Z,29.17
2023-02-14T13:41:10.483Z,29.02
2023-02-14T13:42:12.821Z,29.05
2023-02-14T13:43:53.945Z,27.55
2023-02-14T13:44:55.870Z,33.00
2023-02-14T13:45:58.113Z,29.23
2023-02-14T13:46:59.906Z,30.30
2023-02-14T13:48:14.855Z,34.58
2023-02-14T13:49:31.708Z,30.50
2023-02-14T13:50:37.587Z,29.30
2023-02-14T13:51:45.503Z,29.02
2023-02-14T13:52:49.103Z,28.63
2023-02-14T13:53:52.544Z,27.58
2023-02-14T13:55:03.570Z,29.02
2023-02-14T13:56:27.942Z,26.42
2023-02-14T13:57:34.885Z,26.08
2023-02-14T13:58:46.364Z,26.83
2023-02-14T14:00:17.492Z,26.40
2023-02-14T14:01:43.084Z,26.92
2023-02-14T14:02:53.045Z,28.15
2023-02-14T14:03:59.236Z,27.45
2023-02-14T14:05:01.221Z,28.60
2023-02-14T14:06:11.959Z,30.08
2023-02-14T14:07:14.134Z,29.33
2023-02-14T14:08:23.858Z,29.33
2023-02-14T14:09:41.415Z,30.80
2023-02-14T14:10:49.824Z,31.05
2023-02-14T14:11:52.305Z,29.48
2023-02-14T14:12:54.269Z,29.92
2023-02-14T14:14:01.804Z,28.70
2023-02-14T14:15:07.109Z,31.30
2023-02-14T14:16:24.732Z,30.33
2023-02-14T14:17:27.723Z,31.90
2023-02-14T14:18:37.800Z,32.15
2023-02-14T14:19:42.922Z,31.15
2023-02-14T14:20:48.250Z,30.55
2023-02-14T14:22:09.576Z,31.55
2023-02-14T14:23:30.866Z,32.50
2023-02-14T14:24:37.121Z,34.65
2023-02-14T14:25:41.804Z,30.83
2023-02-14T14:27:00.947Z,33.20
2023-02-14T14:28:10.377Z,32.28
2023-02-14T14:29:25.649Z,34.55
2023-02-14T14:30:33.651Z,31.70
2023-02-14T14:31:38.268Z,32.33
2023-02-14T14:32:43.682Z,32.60
2023-02-14T14:33:45.944Z,33.75
2023-02-14T14:35:15.819Z,31.98